createdAt,value
2022-08-05T09:14:01.254Z,2.70
2022-08-05T09:16:27.785Z,2.83
2022-08-05T09:18:56.390Z,2.53
2022-08-05T09:22:31.285Z,11.93
2022-08-05T09:24:18.127Z,3.05
2022-08-05T09:26:51.935Z,2.90
2022-08-05T09:29:30.720Z,2.72
2022-08-05T09:32:46.602Z,3.00
2022-08-05T09:34:53.429Z,2.53
2022-08-05T09:38:16.460Z,6.68
2022-08-05T09:40:30.635Z,2.40
2022-08-05T09:43:01.312Z,2.45
2022-08-05T09:46:07.421Z,2.20
2022-08-05T09:48:29.384Z,2.50
2022-08-05T09:50:59.543Z,2.90
2022-08-05T09:53:53.697Z,2.80
2022-08-05T09:56:26.444Z,2.17
2022-08-05T09:59:04.125Z,2.00
2022-08-05T10:01:35.187Z,12.80
2022-08-05T10:04:10.692Z,5.80
2022-08-05T10:06:54.750Z,6.47
2022-08-05T10:09:28.040Z,2.20
2022-08-05T10:12:30.306Z,1.70
2022-08-05T10:15:17.058Z,8.00
2022-08-05T10:18:04.506Z,1.80
2022-08-05T10:20:34.263Z,2.20
2022-08-05T10:23:03.377Z,9.77
2022-08-05T10:25:33.418Z,1.90
2022-08-05T10:28:12.887Z,32.72
2022-08-05T10:32:49.302Z,25.10
2022-08-05T10:33:37.096Z,12.45
2022-08-05T10:36:08.678Z,2.38
2022-08-05T10:38:38.010Z,2.85
2022-08-05T10:41:15.431Z,2.30
2022-08-05T10:43:59.304Z,2.10
2022-08-05T10:46:44.727Z,2.20
2022-08-05T10:49:16.906Z,2.13
2022-08-05T10:51:48.655Z,3.83
2022-08-05T10:54:56.278Z,17.85
2022-08-05T10:57:29.559Z,2.20
2022-08-05T11:00:19.042Z,2.30
2022-08-05T11:03:23.683Z,2.55
2022-08-05T11:06:15.631Z,2.25
2022-08-05T11:09:04.909Z,2.08
2022-08-05T11:11:53.002Z,2.38
2022-08-05T11:14:56.269Z,3.17
2022-08-05T11:17:57.778Z,2.40
2022-08-05T11:20:38.935Z,6.72
2022-08-05T11:24:02.312Z,2.65
2022-08-05T11:26:28.503Z,4.93
2022-08-05T11:29:12.567Z,2.42
2022-08-05T11:31:56.648Z,2.50
2022-08-05T11:34:51.665Z,3.05
2022-08-05T11:38:29.003Z,2.45
2022-08-05T11:40:51.240Z,2.47
2022-08-05T11:43:35.422Z,2.20
2022-08-05T11:46:27.290Z,2.30
2022-08-05T11:49:10.163Z,2.10
2022-08-05T11:51:44.725Z,2.25
2022-08-05T11:54:33.106Z,12.48
2022-08-05T11:57:08.607Z,11.38
2022-08-05T11:59:54.784Z,5.63
2022-08-05T12:02:31.153Z,2.30
2022-08-05T12:05:06.983Z,11.20
2022-08-05T12:08:03.379Z,2.40
2022-08-05T12:10:43.350Z,2.30
2022-08-05T12:13:16.461Z,6.63
2022-08-05T12:15:49.968Z,2.80
2022-08-05T12:18:33.046Z,2.75
2022-08-05T12:21:11.001Z,2.38
2022-08-05T12:23:42.908Z,2.42
2022-08-05T12:26:11.982Z,2.70
2022-08-05T12:28:40.698Z,3.10
2022-08-05T12:31:11.068Z,2.58
2022-08-05T12:33:51.906Z,2.38
2022-08-05T12:36:21.639Z,2.60
2022-08-05T12:38:55.106Z,2.55
2022-08-05T12:41:23.725Z,2.40
2022-08-05T12:44:04.361Z,2.20
2022-08-05T12:46:35.553Z,2.50
2022-08-05T12:49:13.628Z,2.30
2022-08-05T12:52:13.810Z,2.15
2022-08-05T12:54:34.854Z,2.60
2022-08-05T12:57:04.249Z,5.60
2022-08-05T13:01:58.423Z,2.60
2022-08-05T13:02:40.080Z,2.35
2022-08-05T13:05:12.499Z,2.10
2022-08-05T13:07:59.673Z,2.30
2022-08-05T13:10:29.524Z,2.22
2022-08-05T13:12:58.772Z,2.60
2022-08-05T13:15:41.769Z,2.30
2022-08-05T13:18:20.895Z,2.35
2022-08-05T13:20:50.339Z,3.03
2022-08-05T13:23:22.961Z,22.35
2022-08-05T13:25:59.258Z,2.13
2022-08-05T13:28:32.120Z,2.42
2022-08-05T13:31:10.998Z,2.30
2022-08-05T13:34:22.599Z,2.80
2022-08-05T13:36:33.452Z,2.70
2022-08-05T13:39:02.407Z,2.40
2022-08-05T13:41:38.342Z,2.40
2022-08-05T13:44:07.867Z,2.50
2022-08-05T13:47:01.928Z,2.40
2022-08-05T13:49:28.864Z,2.10
2022-08-05T13:52:12.210Z,2.50
2022-08-05T13:54:41.139Z,2.47
2022-08-05T13:57:10.401Z,2.30
2022-08-05T13:59:57.423Z,2.72
2022-08-05T14:02:31.308Z,2.40
2022-08-05T14:05:15.362Z,2.47
2022-08-05T14:08:02.816Z,2.50
2022-08-05T14:10:35.513Z,2.33
2022-08-05T14:13:07.393Z,2.38
2022-08-05T14:16:04.960Z,2.40
2022-08-05T14:18:25.314Z,2.28
2022-08-05T14:20:55.460Z,2.60
2022-08-05T14:23:26.303Z,2.35
2022-08-05T14:25:59.589Z,2.80
2022-08-05T14:28:29.028Z,2.50
2022-08-05T14:30:57.826Z,2.20
2022-08-05T14:33:26.393Z,2.70
2022-08-05T14:35:58.946Z,2.45
2022-08-05T14:39:10.970Z,2.60
2022-08-05T14:41:56.887Z,2.60
2022-08-05T14:44:31.608Z,3.00
2022-08-05T14:47:00.305Z,2.50
2022-08-05T14:49:59.663Z,2.53
2022-08-05T14:52:50.452Z,3.40
2022-08-05T14:55:13.959Z,2.10
2022-08-05T14:57:56.307Z,2.58
2022-08-05T15:00:29.333Z,2.40
2022-08-05T15:02:58.464Z,2.20
2022-08-05T15:05:29.672Z,2.60
2022-08-05T15:08:06.839Z,2.42
2022-08-05T15:10:43.455Z,2.42
2022-08-05T15:13:14.937Z,2.80
2022-08-05T15:15:56.003Z,2.78
2022-08-05T15:18:25.218Z,9.63
2022-08-05T15:20:53.746Z,2.97
2022-08-05T15:23:23.803Z,2.50
2022-08-05T15:25:55.843Z,2.60
2022-08-05T15:28:27.994Z,2.97
2022-08-05T15:30:57.149Z,2.60
2022-08-05T15:34:05.592Z,2.60
2022-08-05T15:36:16.960Z,2.50
2022-08-05T15:38:48.482Z,2.60
2022-08-05T15:41:22.322Z,2.55
2022-08-05T15:43:54.452Z,2.35
2022-08-05T15:46:23.999Z,2.60
2022-08-05T15:49:00.675Z,2.40
2022-08-05T15:52:12.907Z,2.30
2022-08-05T15:54:20.624Z,2.25
2022-08-05T15:57:03.928Z,2.50
2022-08-05T15:59:38.151Z,2.33
2022-08-05T16:02:09.670Z,2.70
2022-08-05T16:04:43.412Z,2.70
2022-08-05T16:07:13.638Z,2.45
2022-08-05T16:09:45.329Z,2.42
2022-08-05T16:12:14.049Z,2.70
2022-08-05T16:14:43.741Z,2.75
2022-08-05T16:17:14.778Z,2.60
2022-08-05T16:20:04.251Z,2.50
2022-08-05T16:22:34.380Z,2.58
2022-08-05T16:25:08.213Z,2.50
2022-08-05T16:27:59.812Z,2.50
2022-08-05T16:30:28.737Z,3.42
2022-08-05T16:32:58.240Z,2.70
2022-08-05T16:35:28.251Z,2.50
2022-08-05T16:38:16.147Z,2.60
2022-08-05T16:40:59.872Z,2.80
2022-08-05T16:43:30.790Z,3.30
2022-08-05T16:46:06.566Z,3.08
2022-08-05T16:48:41.899Z,3.00
2022-08-05T16:51:11.215Z,2.42
2022-08-05T16:54:03.318Z,2.70
2022-08-05T16:56:33.761Z,2.17
2022-08-05T16:59:08.080Z,5.72
2022-08-05T17:01:53.745Z,2.80
2022-08-05T17:04:26.459Z,2.50
2022-08-05T17:07:00.201Z,2.40
2022-08-05T17:09:29.822Z,8.85
2022-08-05T17:12:00.374Z,8.52
2022-08-05T17:14:36.901Z,3.03
2022-08-05T17:17:06.819Z,11.35
2022-08-05T17:19:45.582Z,65.53
2022-08-05T17:22:17.895Z,3.15
2022-08-05T17:24:57.968Z,2.53
2022-08-05T17:27:34.478Z,6.95
2022-08-05T17:30:03.959Z,2.00
2022-08-05T17:32:34.515Z,2.70
2022-08-05T17:35:04.088Z,3.63
2022-08-05T17:37:40.109Z,3.03
2022-08-05T17:40:12.370Z,15.68
2022-08-05T17:42:50.530Z,34.55
2022-08-05T17:45:22.228Z,9.18
2022-08-05T17:47:56.078Z,3.33
2022-08-05T17:50:28.359Z,2.50
2022-08-05T17:53:00.039Z,2.50
2022-08-05T17:55:37.824Z,2.60
2022-08-05T17:58:12.183Z,3.20
2022-08-05T18:00:44.757Z,3.00
2022-08-05T18:06:11.925Z,2.67
2022-08-05T18:08:45.796Z,2.85
2022-08-05T18:11:23.153Z,68.57
2022-08-05T18:13:55.838Z,4.18
2022-08-05T18:16:24.592Z,3.25
2022-08-05T18:18:53.212Z,3.22
2022-08-05T18:21:26.100Z,3.35
2022-08-05T18:23:55.317Z,2.88
2022-08-05T18:26:29.008Z,3.22
2022-08-05T18:28:59.662Z,2.97
2022-08-05T18:31:33.827Z,2.92
2022-08-05T18:34:06.639Z,3.40
2022-08-05T18:36:41.469Z,3.00
2022-08-05T18:39:41.781Z,3.30
2022-08-05T18:42:06.294Z,3.72
2022-08-05T18:44:49.202Z,3.92
2022-08-05T18:47:26.701Z,3.95
2022-08-05T18:50:13.436Z,3.92
2022-08-05T18:52:50.767Z,3.60
2022-08-05T18:55:21.445Z,3.70
2022-08-05T18:57:53.401Z,3.70
2022-08-05T19:00:29.110Z,4.28
2022-08-05T19:03:03.200Z,4.28
2022-08-05T19:06:13.168Z,4.35
2022-08-05T19:08:30.906Z,3.47
2022-08-05T19:11:04.737Z,2.88
2022-08-05T19:13:35.913Z,2.75
2022-08-05T19:16:25.173Z,2.83
2022-08-05T19:18:57.044Z,5.18
2022-08-05T19:21:27.348Z,2.58
2022-08-05T19:24:06.996Z,19.05
2022-08-05T19:26:54.362Z,4.93
2022-08-05T19:29:26.684Z,2.53
2022-08-05T19:32:11.420Z,2.58
2022-08-05T19:34:40.650Z,2.47
2022-08-05T19:37:11.336Z,2.78
2022-08-05T19:39:45.548Z,4.80
2022-08-05T19:42:35.471Z,3.30
2022-08-05T19:45:05.710Z,3.10
2022-08-05T19:47:37.453Z,2.88
2022-08-05T19:50:10.426Z,2.92
2022-08-05T19:52:41.015Z,2.83
2022-08-05T19:56:14.546Z,3.50
2022-08-05T19:58:14.464Z,3.22
2022-08-05T20:00:48.250Z,2.88
2022-08-05T20:03:20.508Z,2.90
2022-08-05T20:05:50.264Z,2.95
2022-08-05T20:08:20.221Z,6.10
2022-08-05T20:10:49.640Z,3.13
2022-08-05T20:13:29.804Z,14.32
2022-08-05T20:16:07.487Z,5.07
2022-08-05T20:18:37.549Z,2.83
2022-08-05T20:21:06.949Z,3.00
2022-08-05T20:23:39.679Z,19.45
2022-08-05T20:26:20.681Z,3.22
2022-08-05T20:28:50.956Z,4.07
2022-08-05T20:31:22.905Z,3.22
2022-08-05T20:33:58.761Z,2.95
2022-08-05T20:36:27.525Z,3.05
2022-08-05T20:38:58.000Z,3.00
2022-08-05T20:41:44.564Z,3.30
2022-08-05T20:44:19.403Z,5.50
2022-08-05T20:47:03.228Z,3.63
2022-08-05T20:49:39.348Z,3.17
2022-08-05T20:52:17.170Z,3.55
2022-08-05T20:55:00.189Z,3.55
2022-08-05T20:57:43.152Z,3.13
2022-08-05T21:00:40.151Z,3.60
2022-08-05T21:03:07.806Z,5.22
2022-08-05T21:05:53.535Z,5.53
2022-08-05T21:08:32.936Z,6.65
2022-08-05T21:11:11.920Z,6.57
2022-08-05T21:13:56.120Z,5.35
2022-08-05T21:16:29.728Z,6.50
2022-08-05T21:18:59.910Z,17.48
2022-08-05T21:21:39.430Z,17.67
2022-08-05T21:24:15.517Z,23.63
2022-08-05T21:26:53.723Z,16.20
2022-08-05T21:29:31.922Z,34.78
2022-08-05T21:32:01.350Z,44.72
2022-08-05T21:34:32.912Z,51.20
2022-08-05T21:37:04.629Z,64.35
2022-08-05T21:39:34.414Z,102.30
2022-08-05T21:42:03.493Z,57.72
2022-08-05T21:44:32.149Z,75.22
2022-08-05T21:47:00.880Z,66.03
2022-08-05T21:49:58.721Z,76.22
2022-08-05T21:52:28.005Z,91.80
2022-08-05T21:55:07.069Z,77.13
2022-08-05T21:57:42.570Z,140.05
2022-08-05T22:00:12.884Z,129.32
2022-08-05T22:02:42.579Z,178.50
2022-08-05T22:05:11.831Z,105.00
2022-08-05T22:07:58.855Z,136.77
2022-08-05T22:10:28.538Z,116.07
2022-08-05T22:12:59.121Z,162.75
2022-08-05T22:15:56.454Z,96.13
2022-08-05T22:18:26.467Z,146.32
2022-08-05T22:20:55.807Z,117.28
2022-08-05T22:24:01.275Z,129.75
2022-08-05T22:26:50.584Z,98.60
2022-08-05T22:29:26.805Z,133.02
2022-08-05T22:32:02.573Z,193.05
2022-08-05T22:34:31.736Z,147.27
2022-08-05T22:37:00.957Z,257.83
2022-08-05T22:39:35.430Z,184.63
2022-08-05T22:42:12.523Z,148.32
2022-08-05T22:44:48.213Z,151.77
2022-08-05T22:47:30.127Z,284.52
2022-08-05T22:50:21.633Z,161.80
2022-08-05T22:52:50.288Z,158.02
2022-08-05T22:55:26.119Z,140.75
2022-08-05T22:57:55.442Z,196.57
2022-08-05T23:00:26.848Z,168.00
2022-08-05T23:02:56.342Z,148.30
2022-08-05T23:05:26.873Z,201.63
2022-08-05T23:07:55.385Z,147.80
2022-08-05T23:10:28.481Z,146.77
2022-08-05T23:12:57.462Z,102.97
2022-08-05T23:15:30.046Z,154.32
2022-08-05T23:18:06.165Z,226.98
2022-08-05T23:20:40.417Z,103.22
2022-08-05T23:23:11.883Z,162.27
2022-08-05T23:25:53.363Z,160.35
2022-08-05T23:28:27.614Z,184.30
2022-08-05T23:31:07.066Z,133.02
2022-08-05T23:34:03.736Z,165.90
2022-08-05T23:36:39.560Z,88.97
2022-08-05T23:39:17.107Z,115.15
2022-08-05T23:41:56.484Z,257.98
2022-08-05T23:44:27.803Z,254.98
2022-08-05T23:47:00.139Z,233.18
2022-08-05T23:49:33.796Z,215.88
2022-08-05T23:52:49.952Z,132.93
2022-08-05T23:55:19.953Z,191.45
2022-08-05T23:57:52.901Z,162.25
